createdAt,value
2019-06-01T00:02:56.376Z,21.28
2019-06-01T00:07:53.944Z,21.16
2019-06-01T00:12:55.400Z,20.98
2019-06-01T00:17:56.933Z,20.90
2019-06-01T00:22:58.993Z,20.80
2019-06-01T00:28:00.583Z,20.79
2019-06-01T00:33:02.428Z,20.74
2019-06-01T00:38:03.755Z,20.62
2019-06-01T00:43:05.079Z,20.54
2019-06-01T00:48:06.426Z,20.46
2019-06-01T00:53:07.754Z,20.37
2019-06-01T00:58:09.096Z,20.38
2019-06-01T01:03:11.136Z,20.26
2019-06-01T01:08:12.494Z,20.10
2019-06-01T01:13:17.699Z,20.05
2019-06-01T01:18:19.187Z,20.02
2019-06-01T01:23:20.536Z,20.04
2019-06-01T01:28:23.922Z,19.99
2019-06-01T01:33:23.312Z,20.03
2019-06-01T01:38:26.136Z,19.97
2019-06-01T01:43:27.455Z,19.94
2019-06-01T01:48:29.269Z,19.88
2019-06-01T01:53:30.605Z,19.79
2019-06-01T01:58:31.961Z,19.69
2019-06-01T02:03:33.287Z,19.65
2019-06-01T02:08:34.621Z,19.64
2019-06-01T02:13:35.920Z,19.56
2019-06-01T02:18:37.287Z,19.41
2019-06-01T02:23:38.681Z,19.27
2019-06-01T02:28:40.015Z,19.15
2019-06-01T02:33:41.371Z,18.99
2019-06-01T02:38:42.747Z,18.88
2019-06-01T02:43:44.103Z,18.80
2019-06-01T02:48:45.405Z,18.82
2019-06-01T02:53:46.877Z,18.81
2019-06-01T02:58:48.204Z,18.77
2019-06-01T03:03:49.579Z,18.83
2019-06-01T03:08:50.888Z,18.87
2019-06-01T03:13:52.215Z,18.87
2019-06-01T03:18:53.525Z,18.73
2019-06-01T03:23:54.839Z,18.64
2019-06-01T03:28:56.209Z,18.55
2019-06-01T03:33:57.577Z,18.54
2019-06-01T03:38:59.957Z,18.52
2019-06-01T03:44:02.416Z,18.51
2019-06-01T03:49:03.634Z,18.51
2019-06-01T03:54:05.030Z,18.59
2019-06-01T03:59:05.354Z,18.61
2019-06-01T04:04:07.130Z,18.64
2019-06-01T04:09:08.085Z,18.67
2019-06-01T04:14:09.878Z,18.73
2019-06-01T04:19:12.196Z,18.81
2019-06-01T04:24:12.657Z,18.92
2019-06-01T04:29:14.024Z,19.08
2019-06-01T04:34:15.441Z,19.17
2019-06-01T04:39:17.491Z,19.29
2019-06-01T04:44:18.816Z,19.34
2019-06-01T04:49:20.132Z,19.47
2019-06-01T04:54:21.437Z,19.55
2019-06-01T04:59:22.848Z,19.67
2019-06-01T05:04:24.177Z,19.82
2019-06-01T05:09:25.508Z,19.94
2019-06-01T05:14:26.940Z,20.03
2019-06-01T05:19:28.269Z,20.23
2019-06-01T05:24:29.616Z,20.42
2019-06-01T05:29:30.975Z,20.39
2019-06-01T05:34:32.301Z,20.62
2019-06-01T05:39:33.631Z,20.73
2019-06-01T05:44:34.954Z,20.91
2019-06-01T05:49:37.015Z,21.10
2019-06-01T05:54:38.345Z,21.26
2019-06-01T05:59:39.697Z,21.43
2019-06-01T06:04:41.053Z,21.61
2019-06-01T06:09:42.458Z,21.76
2019-06-01T06:14:43.840Z,21.93
2019-06-01T06:19:45.184Z,22.05
2019-06-01T06:24:46.501Z,22.10
2019-06-01T06:29:47.810Z,22.26
2019-06-01T06:34:49.237Z,22.41
2019-06-01T06:39:50.594Z,22.56
2019-06-01T06:44:51.897Z,22.67
2019-06-01T06:49:53.224Z,22.75
2019-06-01T06:54:54.574Z,22.95
2019-06-01T06:59:55.871Z,23.04
2019-06-01T07:04:57.231Z,23.14
2019-06-01T07:09:58.549Z,23.21
2019-06-01T07:14:59.874Z,23.22
2019-06-01T07:20:01.381Z,23.36
2019-06-01T07:25:04.241Z,23.53
2019-06-01T07:30:05.585Z,23.70
2019-06-01T07:35:06.945Z,23.65
2019-06-01T07:40:13.150Z,23.75
2019-06-01T07:45:09.773Z,23.88
2019-06-01T07:50:11.228Z,24.04
2019-06-01T07:55:12.556Z,24.07
2019-06-01T08:00:13.919Z,24.29
2019-06-01T08:05:15.269Z,24.33
2019-06-01T08:10:16.734Z,24.35
2019-06-01T08:15:18.084Z,24.50
2019-06-01T08:20:19.418Z,24.28
2019-06-01T08:25:22.179Z,24.64
2019-06-01T08:30:23.001Z,24.68
2019-06-01T08:35:24.892Z,24.85
2019-06-01T08:40:25.773Z,24.94
2019-06-01T08:45:27.679Z,24.93
2019-06-01T08:50:29.795Z,24.91
2019-06-01T08:55:30.201Z,25.05
2019-06-01T09:00:32.530Z,25.16
2019-06-01T09:05:33.148Z,25.19
2019-06-01T09:10:35.420Z,25.34
2019-06-01T09:15:35.681Z,25.36
2019-06-01T09:20:38.835Z,25.46
2019-06-01T09:25:38.218Z,25.36
2019-06-01T09:30:39.631Z,25.20
2019-06-01T09:35:53.933Z,25.52
2019-06-01T09:40:42.437Z,25.66
2019-06-01T09:45:43.765Z,25.82
2019-06-01T09:50:45.170Z,25.89
2019-06-01T09:55:46.471Z,25.63
2019-06-01T10:00:48.674Z,25.79
2019-06-01T10:06:01.333Z,26.02
2019-06-01T10:10:52.279Z,26.06
2019-06-01T10:15:53.751Z,26.02
2019-06-01T10:20:55.193Z,26.21
2019-06-01T10:25:56.528Z,26.30
2019-06-01T10:30:57.904Z,26.44
2019-06-01T10:35:59.232Z,26.50
2019-06-01T10:41:00.589Z,26.53
2019-06-01T10:46:01.984Z,26.35
2019-06-01T10:51:03.393Z,26.42
2019-06-01T10:56:04.814Z,26.60
2019-06-01T11:01:06.277Z,26.36
2019-06-01T11:06:07.654Z,26.40
2019-06-01T11:11:09.019Z,26.65
2019-06-01T11:16:10.341Z,26.77
2019-06-01T11:21:11.722Z,27.10
2019-06-01T11:26:13.800Z,27.09
2019-06-01T11:31:15.167Z,27.21
2019-06-01T11:36:16.550Z,27.53
2019-06-01T11:41:18.824Z,27.65
2019-06-01T11:46:19.389Z,27.71
2019-06-01T11:51:20.725Z,28.08
2019-06-01T11:56:22.034Z,28.38
2019-06-01T12:01:23.398Z,28.53
2019-06-01T12:06:24.801Z,28.88
2019-06-01T12:11:26.121Z,29.26
2019-06-01T12:16:27.436Z,29.72
2019-06-01T12:21:28.801Z,29.82
2019-06-01T12:26:30.111Z,29.83
2019-06-01T12:31:31.423Z,29.99
2019-06-01T12:36:32.754Z,29.82
2019-06-01T12:41:34.078Z,30.36
2019-06-01T12:46:36.992Z,30.89
2019-06-01T12:51:40.411Z,31.32
2019-06-01T12:56:40.817Z,31.33
2019-06-01T13:01:42.978Z,31.48
2019-06-01T13:06:45.037Z,31.47
2019-06-01T13:11:45.319Z,30.76
2019-06-01T13:16:56.980Z,30.51
2019-06-01T13:21:49.986Z,31.38
2019-06-01T13:26:50.109Z,31.89
2019-06-01T13:31:50.883Z,32.53
2019-06-01T13:36:53.044Z,32.95
2019-06-01T13:41:53.645Z,33.16
2019-06-01T13:46:55.018Z,33.27
2019-06-01T13:51:56.357Z,33.38
2019-06-01T13:56:57.681Z,34.43
2019-06-01T14:01:59.046Z,34.70
2019-06-01T14:07:00.434Z,35.37
2019-06-01T14:12:01.773Z,35.35
2019-06-01T14:17:03.141Z,35.65
2019-06-01T14:22:04.471Z,34.62
2019-06-01T14:27:05.760Z,33.88
2019-06-01T14:32:07.077Z,33.60
2019-06-01T14:37:09.145Z,33.93
2019-06-01T14:42:10.487Z,35.18
2019-06-01T14:47:11.909Z,35.78
2019-06-01T14:52:13.340Z,36.71
2019-06-01T14:57:14.732Z,37.52
2019-06-01T15:02:16.063Z,38.69
2019-06-01T15:07:17.452Z,38.04
2019-06-01T15:12:18.837Z,37.61
2019-06-01T15:17:20.169Z,36.41
2019-06-01T15:22:21.466Z,36.11
2019-06-01T15:27:22.812Z,37.54
2019-06-01T15:32:26.771Z,38.01
2019-06-01T15:37:26.233Z,38.33
2019-06-01T15:42:27.568Z,38.83
2019-06-01T15:47:28.940Z,38.92
2019-06-01T15:52:30.321Z,38.39
2019-06-01T15:57:31.629Z,36.91
2019-06-01T16:02:32.953Z,37.11
2019-06-01T16:07:34.261Z,37.15
2019-06-01T16:12:36.490Z,37.42
2019-06-01T16:17:38.728Z,37.89
2019-06-01T16:22:40.108Z,37.88
2019-06-01T16:27:41.554Z,38.21
2019-06-01T16:32:43.602Z,38.08
2019-06-01T16:37:45.018Z,38.01
2019-06-01T16:42:46.425Z,37.91
2019-06-01T16:47:47.773Z,37.50
2019-06-01T16:52:49.163Z,37.27
2019-06-01T16:57:50.591Z,37.28
2019-06-01T17:02:51.924Z,37.49
2019-06-01T17:07:54.050Z,37.34
2019-06-01T17:12:56.736Z,37.25
2019-06-01T17:17:57.281Z,37.02
2019-06-01T17:22:59.452Z,37.42
2019-06-01T17:28:00.276Z,37.90
2019-06-01T17:33:02.326Z,38.45
2019-06-01T17:38:03.006Z,38.98
2019-06-01T17:43:04.682Z,39.03
2019-06-01T17:48:20.487Z,38.66
2019-06-01T17:53:07.079Z,37.59
2019-06-01T17:58:09.792Z,36.03
2019-06-01T18:03:10.162Z,35.43
2019-06-01T18:08:12.385Z,35.15
2019-06-01T18:13:13.050Z,35.75
2019-06-01T18:18:14.044Z,36.27
2019-06-01T18:23:15.239Z,36.37
2019-06-01T18:28:19.717Z,36.34
2019-06-01T18:33:18.054Z,36.23
2019-06-01T18:38:19.413Z,35.59
2019-06-01T18:43:21.476Z,34.76
2019-06-01T18:48:23.530Z,34.26
2019-06-01T18:53:24.893Z,33.56
2019-06-01T18:58:26.283Z,32.97
2019-06-01T19:03:27.601Z,32.65
2019-06-01T19:08:29.212Z,32.47
2019-06-01T19:13:30.557Z,32.38
2019-06-01T19:18:31.975Z,32.09
2019-06-01T19:23:33.310Z,31.77
2019-06-01T19:28:34.713Z,31.60
2019-06-01T19:33:36.169Z,31.48
2019-06-01T19:38:37.609Z,31.30
2019-06-01T19:43:38.978Z,31.02
2019-06-01T19:48:40.321Z,30.89
2019-06-01T19:53:41.729Z,30.92
2019-06-01T19:58:43.081Z,30.91
2019-06-01T20:03:44.414Z,30.66
2019-06-01T20:08:45.752Z,30.65
2019-06-01T20:13:47.058Z,30.57
2019-06-01T20:18:48.400Z,30.49
2019-06-01T20:23:49.758Z,30.37
2019-06-01T20:28:51.142Z,30.12
2019-06-01T20:33:56.073Z,29.86
2019-06-01T20:38:53.849Z,29.58
2019-06-01T20:43:55.161Z,29.51
2019-06-01T20:48:56.585Z,29.40
2019-06-01T20:53:58.037Z,29.40
2019-06-01T20:58:59.338Z,29.34
2019-06-01T21:04:00.651Z,29.20
2019-06-01T21:09:01.979Z,29.03
2019-06-01T21:14:03.590Z,28.94
2019-06-01T21:19:04.920Z,28.71
2019-06-01T21:24:06.333Z,28.63
2019-06-01T21:29:07.716Z,28.58
2019-06-01T21:34:12.102Z,28.29
2019-06-01T21:39:15.476Z,28.18
2019-06-01T21:44:22.072Z,27.98
2019-06-01T21:49:28.132Z,27.81
2019-06-01T21:54:29.476Z,27.61
2019-06-01T21:59:30.837Z,27.47
2019-06-01T22:04:32.285Z,27.35
2019-06-01T22:09:33.653Z,27.25
2019-06-01T22:14:35.047Z,27.08
2019-06-01T22:19:36.380Z,26.95
2019-06-01T22:24:37.784Z,26.83
2019-06-01T22:29:39.257Z,26.71
2019-06-01T22:34:40.627Z,26.58
2019-06-01T22:39:42.294Z,26.46
2019-06-01T22:44:43.677Z,26.33
2019-06-01T22:49:45.028Z,26.21
2019-06-01T22:54:46.369Z,26.17
2019-06-01T22:59:47.662Z,26.07
2019-06-01T23:04:53.471Z,25.87
2019-06-01T23:09:54.798Z,25.79
2019-06-01T23:14:56.128Z,25.69
2019-06-01T23:19:57.441Z,25.63
2019-06-01T23:24:58.775Z,25.47
2019-06-01T23:30:00.098Z,25.35
2019-06-01T23:35:01.438Z,25.20
2019-06-01T23:40:04.095Z,25.12
2019-06-01T23:45:06.241Z,24.97
2019-06-01T23:50:07.572Z,24.91
2019-06-01T23:55:09.697Z,24.87
